Time;durP1;ratioP1;P1;durP2;ratioP2;P2;SDS_P1;SDS_P2;PMS_P1;PMS_P2;Temp;Humidity;BMP_temperature;BMP_pressure;BME280_temperature;BME280_humidity;BME280_pressure;Samples;Min_cycle;Max_cycle;Signal;HPM_P1;HPM_P2
2022/01/23 00:01:46;;;;;;;0.40;0.20;;;-8.00;99.90;;;;;;2220961;64;20508;-37
2022/01/23 00:04:13;;;;;;;0.13;0.13;;;-8.00;99.90;;;;;;2220743;64;20095;-37
2022/01/23 00:06:39;;;;;;;1.47;0.40;;;-8.00;99.90;;;;;;2220750;64;20322;-37
2022/01/23 00:09:06;;;;;;;0.33;0.20;;;-8.00;99.90;;;;;;2220665;64;20171;-39
2022/01/23 00:11:37;;;;;;;1.60;0.40;;;-8.00;99.90;;;;;;2220673;64;20093;-37
2022/01/23 00:19:15;;;;;;;0.55;0.32;;;-8.00;99.90;;;;;;2220797;64;20092;-38
2022/01/23 00:21:42;;;;;;;0.20;0.13;;;-8.00;99.90;;;;;;2220695;64;20096;-39
2022/01/23 00:32:07;;;;;;;1.08;0.43;;;-8.00;99.90;;;;;;2224464;64;20111;-39
2022/01/23 00:34:34;;;;;;;3.77;1.10;;;-8.00;99.90;;;;;;2204781;64;20093;-38
2022/01/23 00:37:01;;;;;;;2.80;0.70;;;-8.00;99.90;;;;;;2211096;64;20086;-36
2022/01/23 00:39:27;;;;;;;2.20;0.80;;;-8.00;99.90;;;;;;2211304;64;20089;-37
2022/01/23 00:41:53;;;;;;;2.60;0.50;;;-8.00;99.90;;;;;;2211234;64;20093;-38
2022/01/23 00:44:29;;;;;;;1.23;0.40;;;-8.00;99.90;;;;;;2211224;64;20596;-37
2022/01/23 00:46:55;;;;;;;3.10;1.10;;;-8.00;99.90;;;;;;2211127;64;20097;-39
2022/01/23 00:49:25;;;;;;;1.20;0.67;;;-8.00;99.90;;;;;;2204703;64;20112;-36
2022/01/23 00:51:52;;;;;;;2.67;0.70;;;-8.00;99.90;;;;;;2211223;64;20493;-37
2022/01/23 00:54:18;;;;;;;2.37;1.07;;;-8.00;99.90;;;;;;2210994;64;20259;-40
2022/01/23 00:56:45;;;;;;;5.77;0.90;;;-8.00;99.90;;;;;;2211062;64;20101;-37
2022/01/23 00:59:11;;;;;;;2.47;0.90;;;-7.90;99.90;;;;;;2211443;64;20181;-39
2022/01/23 01:01:40;;;;;;;1.43;0.50;;;-7.90;99.90;;;;;;2211007;64;20179;-41
2022/01/23 01:04:06;;;;;;;2.73;0.80;;;-7.90;99.90;;;;;;2211248;64;20082;-40
2022/01/23 01:06:32;;;;;;;1.97;0.63;;;-7.90;99.90;;;;;;2222354;64;20088;-39
2022/01/23 01:09:03;;;;;;;0.70;0.37;;;-7.90;99.90;;;;;;2224558;64;20094;-38
2022/01/23 01:16:55;;;;;;;6.63;0.80;;;-7.90;99.90;;;;;;2224409;64;20084;-40
2022/01/23 01:33:21;;;;;;;1.95;0.82;;;-7.90;99.90;;;;;;2221298;64;20097;-40
2022/01/23 01:38:20;;;;;;;2.37;0.93;;;-7.90;99.90;;;;;;2221326;64;20093;-42
2022/01/23 01:40:46;;;;;;;1.90;0.57;;;-7.90;99.90;;;;;;2221129;64;20523;-38
2022/01/23 01:43:12;;;;;;;1.00;0.20;;;-7.90;99.90;;;;;;2217312;64;20163;-39
2022/01/23 01:45:41;;;;;;;4.03;0.60;;;-7.90;99.90;;;;;;2221058;64;20100;-40
2022/01/23 01:48:07;;;;;;;2.70;1.00;;;-7.90;99.90;;;;;;2217265;64;20089;-42
2022/01/23 01:50:34;;;;;;;2.43;0.60;;;-7.90;99.90;;;;;;2221026;64;20104;-41
2022/01/23 01:53:01;;;;;;;2.30;1.07;;;-7.90;99.90;;;;;;2220976;64;20603;-40
2022/01/23 01:55:35;;;;;;;1.80;1.00;;;-7.90;99.90;;;;;;2209899;64;20101;-43
2022/01/23 01:58:03;;;;;;;3.38;1.13;;;-7.90;99.90;;;;;;2210762;64;20102;-40
2022/01/23 02:08:25;;;;;;;6.00;1.63;;;-7.90;99.90;;;;;;2221197;64;20174;-41
2022/01/23 02:11:12;;;;;;;3.50;0.90;;;-7.90;99.90;;;;;;2220976;64;20186;-42
2022/01/23 02:13:46;;;;;;;6.90;1.83;;;-7.90;99.90;;;;;;2220979;64;20609;-43
2022/01/23 02:24:48;;;;;;;;;;;-8.00;99.90;;;;;;2221249;64;20085;-41
2022/01/23 02:54:55;;;;;;;3.13;0.97;;;-8.00;99.90;;;;;;2220673;64;20185;-44
2022/01/23 03:00:14;;;;;;;4.57;1.60;;;-8.00;99.90;;;;;;2221127;64;20182;-41
2022/01/23 03:02:46;;;;;;;2.97;0.97;;;-8.00;99.90;;;;;;2220842;64;20099;-39
2022/01/23 03:05:14;;;;;;;4.03;1.23;;;-8.00;99.90;;;;;;2221026;64;20174;-39
2022/01/23 03:10:24;;;;;;;8.47;1.47;;;-8.00;99.90;;;;;;2221034;64;20076;-44
2022/01/23 03:26:26;;;;;;;3.80;2.10;;;-7.90;99.90;;;;;;2223858;64;20448;-45
2022/01/23 03:31:56;;;;;;;1.40;0.65;;;-7.80;99.90;;;;;;2224699;64;20096;-41
2022/01/23 03:34:24;;;;;;;4.03;2.17;;;-7.90;99.90;;;;;;2224891;64;20080;-42
2022/01/23 03:36:51;;;;;;;2.13;1.03;;;-7.90;99.90;;;;;;2224813;64;20563;-43
2022/01/23 03:39:17;;;;;;;0.90;0.40;;;-7.90;99.90;;;;;;2224842;64;20088;-42
2022/01/23 03:41:44;;;;;;;3.77;0.90;;;-7.90;99.90;;;;;;2220543;64;20463;-42
2022/01/23 03:44:12;;;;;;;3.50;1.00;;;-7.80;99.90;;;;;;2224509;64;20098;-41
2022/01/23 03:49:31;;;;;;;2.77;1.40;;;-7.80;99.90;;;;;;2224718;64;20179;-42
2022/01/23 03:52:11;;;;;;;5.40;1.40;;;-7.80;99.90;;;;;;2224506;64;20088;-44
2022/01/23 03:54:37;;;;;;;2.33;1.03;;;-7.80;99.90;;;;;;2224546;64;20084;-41
2022/01/23 03:57:05;;;;;;;1.00;0.60;;;-7.80;99.90;;;;;;2224534;64;20096;-41
2022/01/23 03:59:31;;;;;;;2.53;1.00;;;-7.80;99.90;;;;;;2224574;64;20088;-42
2022/01/23 04:01:58;;;;;;;4.47;1.00;;;-7.80;99.90;;;;;;2224404;64;20091;-39
2022/01/23 04:06:57;;;;;;;0.30;0.30;;;-7.70;99.90;;;;;;2224381;64;20088;-41
2022/01/23 04:09:26;;;;;;;6.43;1.27;;;-7.70;99.90;;;;;;2224516;64;20106;-40
2022/01/23 04:11:54;;;;;;;1.03;0.70;;;-7.70;99.90;;;;;;2224587;64;20104;-43
2022/01/23 04:14:22;;;;;;;3.23;0.77;;;-7.70;99.90;;;;;;2224715;64;20084;-40
2022/01/23 04:17:19;;;;;;;3.83;1.57;;;-7.70;99.90;;;;;;2224493;64;20133;-41
2022/01/23 04:19:57;;;;;;;4.13;0.90;;;-7.70;99.90;;;;;;2224440;64;20629;-44
2022/01/23 05:00:48;;;;;;;2.03;0.55;;;-7.60;99.90;;;;;;2220673;64;20096;-41
2022/01/23 05:06:03;;;;;;;3.40;1.23;;;-7.60;99.90;;;;;;2220288;64;20101;-39
2022/01/23 05:08:33;;;;;;;5.10;1.37;;;-7.60;99.90;;;;;;2220584;64;20103;-39
2022/01/23 05:11:00;;;;;;;2.83;0.63;;;-7.60;99.90;;;;;;2220295;64;20139;-37
2022/01/23 05:13:28;;;;;;;2.03;0.63;;;-7.60;99.90;;;;;;2220663;64;20081;-39
2022/01/23 05:15:54;;;;;;;3.03;0.83;;;-7.60;99.90;;;;;;2220553;64;20560;-41
2022/01/23 05:18:21;;;;;;;5.50;1.63;;;-7.60;99.90;;;;;;2216611;64;20644;-40
2022/01/23 05:20:54;;;;;;;1.97;1.10;;;-7.60;99.90;;;;;;2220361;64;20614;-41
2022/01/23 05:23:21;;;;;;;0.90;0.50;;;-7.50;99.90;;;;;;2220625;64;20107;-42
2022/01/23 05:25:47;;;;;;;2.60;0.87;;;-7.50;99.90;;;;;;2222633;64;20526;-40
2022/01/23 05:28:14;;;;;;;0.50;0.40;;;-7.50;99.90;;;;;;2224410;64;20092;-42
2022/01/23 05:30:41;;;;;;;1.60;0.50;;;-7.50;99.90;;;;;;2224046;64;20077;-40
2022/01/23 05:33:09;;;;;;;6.13;2.27;;;-7.50;99.90;;;;;;2224461;64;20490;-39
2022/01/23 05:35:35;;;;;;;2.13;0.80;;;-7.50;99.90;;;;;;2224257;64;20088;-40
2022/01/23 05:38:02;;;;;;;3.10;0.90;;;-7.50;99.90;;;;;;2224363;64;20135;-42
2022/01/23 05:40:30;;;;;;;7.20;1.37;;;-7.50;99.90;;;;;;2224395;64;20092;-41
2022/01/23 05:42:56;;;;;;;3.20;1.23;;;-7.50;99.90;;;;;;2224455;64;20080;-39
2022/01/23 05:45:23;;;;;;;2.03;1.00;;;-7.50;99.90;;;;;;2210752;64;20097;-43
2022/01/23 05:47:49;;;;;;;5.07;1.10;;;-7.40;99.90;;;;;;2211095;64;20086;-41
2022/01/23 05:50:16;;;;;;;5.73;1.67;;;-7.40;99.90;;;;;;2210893;64;20101;-43
2022/01/23 05:52:42;;;;;;;1.60;0.90;;;-7.30;99.90;;;;;;2211073;64;20575;-41
2022/01/23 05:55:09;;;;;;;2.23;1.00;;;-7.30;99.90;;;;;;2210852;64;20518;-45
2022/01/23 05:57:35;;;;;;;4.53;1.20;;;-7.20;99.90;;;;;;2210945;64;20197;-42
2022/01/23 06:00:02;;;;;;;1.80;0.60;;;-7.20;99.90;;;;;;2210886;64;20561;-39
2022/01/23 06:02:29;;;;;;;1.00;0.60;;;-7.20;99.90;;;;;;2207799;64;20460;-42
2022/01/23 06:04:55;;;;;;;2.40;0.90;;;-7.10;99.90;;;;;;2210837;64;20093;-43
2022/01/23 06:07:22;;;;;;;2.60;1.00;;;-7.10;99.90;;;;;;2211258;64;20120;-42
2022/01/23 06:09:48;;;;;;;1.80;0.70;;;-7.00;99.90;;;;;;2208419;64;20152;-42
2022/01/23 06:12:15;;;;;;;1.73;0.80;;;-7.00;99.90;;;;;;2211602;64;20117;-39
2022/01/23 06:14:41;;;;;;;1.40;0.80;;;-6.90;99.90;;;;;;2208412;64;20225;-42
2022/01/23 06:17:08;;;;;;;2.13;0.80;;;-6.90;99.90;;;;;;2211732;64;20203;-41
2022/01/23 06:19:36;;;;;;;2.73;1.10;;;-6.80;99.90;;;;;;2211615;64;20116;-41
2022/01/23 06:22:02;;;;;;;2.07;0.80;;;-6.70;99.90;;;;;;2213457;64;20208;-39
2022/01/23 06:24:31;;;;;;;0.73;0.47;;;-6.70;99.90;;;;;;2220893;64;20598;-40
2022/01/23 06:26:59;;;;;;;2.00;0.60;;;-6.60;99.90;;;;;;2217212;64;20115;-41
2022/01/23 06:29:27;;;;;;;0.70;0.50;;;-6.60;99.90;;;;;;2217170;64;20173;-41
2022/01/23 06:31:55;;;;;;;2.43;0.70;;;-6.50;99.90;;;;;;2221027;64;20085;-40
2022/01/23 06:34:21;;;;;;;2.67;0.90;;;-6.40;99.90;;;;;;2221049;64;20172;-42
2022/01/23 06:36:50;;;;;;;1.10;0.60;;;-6.30;99.90;;;;;;2217087;64;20100;-41
2022/01/23 06:39:17;;;;;;;1.57;0.43;;;-6.30;99.90;;;;;;2221138;64;20108;-41
2022/01/23 06:41:43;;;;;;;1.30;0.60;;;-6.20;99.90;;;;;;2220914;64;20084;-43
2022/01/23 06:44:10;;;;;;;1.80;0.20;;;-6.10;99.90;;;;;;2221002;64;20104;-39
2022/01/23 06:46:39;;;;;;;1.63;0.40;;;-6.10;99.90;;;;;;2220794;64;20115;-44
2022/01/23 06:49:06;;;;;;;0.67;0.40;;;-6.00;99.90;;;;;;2220865;64;20096;-41
2022/01/23 06:51:33;;;;;;;1.47;0.50;;;-5.90;99.90;;;;;;2220770;64;20129;-40
2022/01/23 06:54:00;;;;;;;1.13;0.50;;;-5.90;99.90;;;;;;2220867;64;20101;-43
2022/01/23 06:56:26;;;;;;;4.63;0.90;;;-5.80;99.90;;;;;;2220922;64;20110;-40
2022/01/23 06:58:54;;;;;;;1.03;0.50;;;-5.80;99.90;;;;;;2221048;64;20422;-40
2022/01/23 07:01:21;;;;;;;0.93;0.50;;;-5.80;99.90;;;;;;2220923;64;20089;-41
2022/01/23 07:03:47;;;;;;;1.67;0.80;;;-5.70;99.90;;;;;;2220999;64;20461;-41
2022/01/23 07:06:14;;;;;;;0.57;0.30;;;-5.60;99.90;;;;;;2220839;64;20109;-41
2022/01/23 07:08:40;;;;;;;1.20;0.80;;;-5.60;99.90;;;;;;2220949;64;20077;-43
2022/01/23 07:11:07;;;;;;;1.37;0.40;;;-5.60;99.90;;;;;;2220794;64;20100;-41
2022/01/23 07:13:33;;;;;;;3.57;0.70;;;-5.50;99.90;;;;;;2221071;64;20552;-41
2022/01/23 07:16:02;;;;;;;1.27;0.60;;;-5.50;99.90;;;;;;2220811;64;20096;-43
2022/01/23 07:18:29;;;;;;;0.53;0.37;;;-5.40;99.90;;;;;;2220886;64;20085;-41
2022/01/23 07:20:56;;;;;;;0.83;0.40;;;-5.40;99.90;;;;;;2220798;64;20104;-42
2022/01/23 07:23:23;;;;;;;0.27;0.20;;;-5.40;99.90;;;;;;2220898;64;20159;-40
2022/01/23 07:25:50;;;;;;;0.73;0.50;;;-5.40;99.90;;;;;;2223050;64;20100;-43
2022/01/23 07:28:19;;;;;;;0.50;0.30;;;-5.40;99.90;;;;;;2224900;64;20103;-44
2022/01/23 07:30:56;;;;;;;0.40;0.20;;;-5.40;99.90;;;;;;2224675;64;20103;-41
2022/01/23 07:33:22;;;;;;;1.20;0.67;;;-5.40;99.90;;;;;;2224825;64;20096;-43
2022/01/23 07:35:49;;;;;;;1.10;1.00;;;-5.30;99.90;;;;;;2220649;64;20099;-43
2022/01/23 07:38:18;;;;;;;1.23;0.50;;;-5.20;99.90;;;;;;2224913;64;20644;-42
2022/01/23 07:40:46;;;;;;;0.47;0.33;;;-5.20;99.90;;;;;;2224488;64;20084;-42
2022/01/23 07:43:14;;;;;;;1.67;0.87;;;-5.10;99.90;;;;;;2224601;64;20104;-44
2022/01/23 07:45:42;;;;;;;1.87;0.60;;;-5.00;99.90;;;;;;2224543;64;20092;-40
2022/01/23 07:48:09;;;;;;;0.87;0.33;;;-5.00;99.90;;;;;;2224527;64;20106;-44
2022/01/23 07:50:35;;;;;;;2.67;0.50;;;-5.00;99.90;;;;;;2224768;64;20080;-39
2022/01/23 07:53:03;;;;;;;1.03;0.50;;;-5.00;99.90;;;;;;2224544;64;20116;-42
2022/01/23 07:55:32;;;;;;;1.10;0.60;;;-5.00;99.90;;;;;;2224600;64;20088;-47
2022/01/23 07:58:05;;;;;;;1.23;0.53;;;-4.90;99.90;;;;;;2224731;64;20097;-39
2022/01/23 08:00:33;;;;;;;5.13;0.97;;;-4.90;99.90;;;;;;2224505;64;20092;-42
2022/01/23 08:02:59;;;;;;;1.80;0.60;;;-4.90;99.90;;;;;;2224660;64;20100;-44
2022/01/23 08:05:26;;;;;;;4.20;1.23;;;-4.90;99.90;;;;;;2224365;64;20533;-39
2022/01/23 08:07:52;;;;;;;0.50;0.40;;;-4.80;99.90;;;;;;2224568;64;20646;-42
2022/01/23 08:10:19;;;;;;;2.73;0.27;;;-4.80;99.90;;;;;;2224209;64;20123;-41
2022/01/23 08:12:45;;;;;;;1.30;0.57;;;-4.80;99.90;;;;;;2224655;64;20161;-42
2022/01/23 08:15:13;;;;;;;3.17;1.50;;;-4.80;99.90;;;;;;2224355;64;20088;-42
2022/01/23 08:17:39;;;;;;;1.17;0.63;;;-4.90;99.90;;;;;;2220664;64;20536;-42
2022/01/23 08:20:07;;;;;;;2.27;0.60;;;-4.80;99.90;;;;;;2224472;64;20575;-42
2022/01/23 08:22:33;;;;;;;1.10;0.50;;;-4.80;99.90;;;;;;2224512;64;20103;-43
2022/01/23 08:25:02;;;;;;;1.30;0.40;;;-4.80;99.90;;;;;;2223278;64;20545;-39
2022/01/23 08:27:29;;;;;;;4.10;0.50;;;-4.80;99.90;;;;;;2220446;64;20092;-41
2022/01/23 08:29:56;;;;;;;1.00;0.57;;;-5.00;99.90;;;;;;2216573;64;20076;-40
2022/01/23 08:32:23;;;;;;;0.63;0.40;;;-4.90;99.90;;;;;;2220615;64;20164;-42
2022/01/23 08:34:49;;;;;;;1.23;0.60;;;-4.80;99.90;;;;;;2220426;64;20476;-41
2022/01/23 08:37:17;;;;;;;0.40;0.20;;;-4.80;99.90;;;;;;2220542;64;20080;-43
2022/01/23 08:39:47;;;;;;;2.83;0.40;;;-4.80;99.90;;;;;;2216634;64;20488;-42
2022/01/23 08:42:15;;;;;;;0.47;0.37;;;-4.80;99.90;;;;;;2220466;64;20085;-42
2022/01/23 08:44:42;;;;;;;2.80;0.60;;;-4.80;99.90;;;;;;2220348;64;20475;-43
2022/01/23 08:47:09;;;;;;;0.83;0.50;;;-4.80;99.90;;;;;;2220674;64;20107;-42
2022/01/23 08:49:44;;;;;;;1.87;1.17;;;-4.70;99.90;;;;;;2220419;64;20598;-42
2022/01/23 08:52:12;;;;;;;1.30;0.60;;;-4.70;99.90;;;;;;2220635;64;20084;-40
2022/01/23 08:54:41;;;;;;;1.50;0.80;;;-4.70;99.90;;;;;;2220634;64;20092;-41
2022/01/23 08:57:08;;;;;;;2.27;0.67;;;-4.70;99.90;;;;;;2216792;64;20556;-42
2022/01/23 08:59:35;;;;;;;3.70;0.80;;;-4.60;99.90;;;;;;2220569;64;20081;-41
2022/01/23 09:02:01;;;;;;;1.23;0.50;;;-4.80;99.90;;;;;;2220611;64;20093;-43
2022/01/23 09:04:28;;;;;;;2.20;0.67;;;-4.70;99.90;;;;;;2220338;64;20610;-41
2022/01/23 09:06:55;;;;;;;1.43;0.63;;;-4.80;99.90;;;;;;2207090;64;20458;-41
2022/01/23 09:09:24;;;;;;;1.20;0.40;;;-4.80;99.90;;;;;;2203892;64;20101;-40
2022/01/23 09:14:28;;;;;;;4.73;0.60;;;-4.80;99.90;;;;;;2207259;64;20082;-42
2022/01/23 09:17:01;;;;;;;2.23;0.70;;;-4.80;99.90;;;;;;2207166;64;20110;-41
2022/01/23 09:19:29;;;;;;;2.33;0.70;;;-4.80;99.90;;;;;;2207320;64;20529;-41
2022/01/23 09:21:57;;;;;;;2.60;0.70;;;-4.60;99.90;;;;;;2207269;64;20132;-42
2022/01/23 09:24:25;;;;;;;1.27;0.60;;;-4.60;99.90;;;;;;2203913;64;20082;-44
2022/01/23 09:26:53;;;;;;;2.00;0.70;;;-4.50;99.90;;;;;;2210895;64;20085;-43
2022/01/23 09:29:43;;;;;;;0.77;0.53;;;-4.50;99.90;;;;;;2211153;64;20175;-44
2022/01/23 09:32:12;;;;;;;1.63;0.60;;;-4.50;99.90;;;;;;2202970;65;20083;-40
2022/01/23 09:34:38;;;;;;;2.50;0.63;;;-4.40;99.90;;;;;;2203304;65;20106;-39
2022/01/23 09:37:08;;;;;;;0.33;0.33;;;-4.40;99.90;;;;;;2200622;64;20192;-43
2022/01/23 09:39:37;;;;;;;2.17;0.60;;;-4.40;99.90;;;;;;2207692;64;20090;-41
2022/01/23 09:42:11;;;;;;;2.17;0.50;;;-4.40;99.90;;;;;;2211528;64;20136;-44
2022/01/23 09:44:47;;;;;;;1.10;0.50;;;-4.40;99.90;;;;;;2208426;64;20086;-42
2022/01/23 09:47:14;;;;;;;2.77;0.60;;;-4.30;99.90;;;;;;2211589;64;20093;-38
2022/01/23 09:49:44;;;;;;;0.93;0.40;;;-4.40;99.90;;;;;;2211754;64;20239;-42
2022/01/23 09:52:12;;;;;;;3.37;0.70;;;-4.50;99.90;;;;;;2211862;64;20177;-43
2022/01/23 09:54:39;;;;;;;2.30;0.93;;;-4.50;99.90;;;;;;2211440;64;20198;-43
2022/01/23 09:57:07;;;;;;;1.60;0.70;;;-4.50;99.90;;;;;;2211725;64;20086;-42
2022/01/23 09:59:34;;;;;;;1.73;0.60;;;-4.40;99.90;;;;;;2211506;64;20099;-41
2022/01/23 10:02:03;;;;;;;2.17;0.70;;;-4.40;99.90;;;;;;2208408;64;20094;-39
2022/01/23 10:04:30;;;;;;;1.23;0.40;;;-4.30;99.90;;;;;;2215267;64;20081;-41
2022/01/23 10:06:56;;;;;;;2.97;0.67;;;-4.40;99.90;;;;;;2211295;64;20094;-41
2022/01/23 10:09:26;;;;;;;0.80;0.50;;;-4.40;99.90;;;;;;2214966;64;20560;-40
2022/01/23 10:11:54;;;;;;;0.80;0.50;;;-4.30;99.90;;;;;;2215413;64;20103;-45
2022/01/23 10:14:20;;;;;;;1.60;0.50;;;-4.30;99.90;;;;;;2215396;64;20081;-47
2022/01/23 10:16:47;;;;;;;6.07;1.17;;;-4.20;99.90;;;;;;2215574;64;20093;-42
2022/01/23 10:19:14;;;;;;;2.17;0.50;;;-4.20;99.90;;;;;;2215378;64;20097;-44
2022/01/23 10:21:43;;;;;;;1.90;0.60;;;-4.10;99.90;;;;;;2212424;64;20539;-44
2022/01/23 10:24:10;;;;;;;1.50;0.40;;;-4.10;99.90;;;;;;2208931;64;20081;-44
2022/01/23 10:26:44;;;;;;;0.87;0.50;;;-4.00;99.90;;;;;;2211694;64;20573;-46
2022/01/23 10:29:32;;;;;;;2.35;1.00;;;-4.10;99.90;;;;;;2208415;64;20558;-43
2022/01/23 10:32:06;;;;;;;1.40;0.60;;;-4.30;99.90;;;;;;2211626;64;20160;-45
2022/01/23 10:34:55;;;;;;;2.30;0.40;;;-4.30;99.90;;;;;;2211344;64;20617;-43
2022/01/23 10:37:35;;;;;;;0.70;0.40;;;-4.20;99.90;;;;;;2213589;64;20088;-44
2022/01/23 10:40:25;;;;;;;0.87;0.40;;;-4.00;99.90;;;;;;2220780;64;20089;-42
2022/01/23 10:48:37;;;;;;;2.40;0.60;;;-3.90;99.90;;;;;;2220853;64;20154;-41
2022/01/23 10:51:14;;;;;;;1.37;0.57;;;-3.90;99.90;;;;;;2220849;64;20511;-44
2022/01/23 10:54:11;;;;;;;1.40;0.40;;;-3.90;99.90;;;;;;2216794;64;20572;-40
2022/01/23 10:56:58;;;;;;;0.80;0.50;;;-3.80;99.90;;;;;;2220862;64;20115;-41
2022/01/23 10:59:24;;;;;;;1.10;0.40;;;-3.80;99.90;;;;;;2216997;64;20088;-41
2022/01/23 11:02:11;;;;;;;1.17;0.50;;;-3.90;99.90;;;;;;2220667;64;20532;-42
2022/01/23 11:04:57;;;;;;;0.97;0.67;;;-3.90;99.90;;;;;;2220945;64;20096;-41
2022/01/23 11:07:25;;;;;;;0.83;0.57;;;-4.10;99.90;;;;;;2220678;64;20108;-43
2022/01/23 11:10:03;;;;;;;2.30;0.70;;;-4.30;99.90;;;;;;2220814;64;20085;-42
2022/01/23 11:17:55;;;;;;;1.53;0.60;;;-4.60;99.90;;;;;;2220984;64;20095;-42
2022/01/23 11:20:50;;;;;;;1.93;0.60;;;-4.60;99.90;;;;;;2220668;64;20166;-43
2022/01/23 11:23:22;;;;;;;5.33;0.77;;;-4.70;99.90;;;;;;2220915;64;20099;-41
2022/01/23 11:26:00;;;;;;;3.87;0.67;;;-4.70;99.90;;;;;;2222999;64;20484;-42
2022/01/23 11:28:44;;;;;;;3.40;1.00;;;-4.80;99.90;;;;;;2224557;64;20192;-41
2022/01/23 11:31:13;;;;;;;3.03;1.07;;;-4.80;99.90;;;;;;2224409;64;20163;-43
2022/01/23 11:33:40;;;;;;;2.43;0.73;;;-4.80;99.90;;;;;;2224457;64;20088;-42
2022/01/23 11:36:07;;;;;;;1.53;0.73;;;-4.80;99.90;;;;;;2224400;64;20080;-40
2022/01/23 11:38:34;;;;;;;2.63;0.80;;;-4.80;99.90;;;;;;2224739;64;20111;-40
2022/01/23 11:55:29;;;;;;;3.43;0.70;;;-4.80;99.90;;;;;;2211181;64;20102;-41
2022/01/23 11:57:56;;;;;;;1.30;0.70;;;-4.80;99.90;;;;;;2222225;64;20111;-41
2022/01/23 12:00:28;;;;;;;2.53;0.87;;;-4.90;99.90;;;;;;2224616;64;20088;-41
2022/01/23 12:03:11;;;;;;;2.93;0.67;;;-4.80;99.90;;;;;;2224526;64;20084;-41
2022/01/23 12:05:39;;;;;;;1.20;0.50;;;-4.80;99.90;;;;;;2224188;64;20548;-41
2022/01/23 12:08:20;;;;;;;2.30;0.57;;;-4.80;99.90;;;;;;2224367;64;20103;-42
2022/01/23 12:11:17;;;;;;;4.20;0.63;;;-4.80;99.90;;;;;;2224543;64;20103;-42
2022/01/23 12:16:34;;;;;;;1.80;0.70;;;-4.80;99.90;;;;;;2217159;64;20092;-42
2022/01/23 12:19:19;;;;;;;4.13;0.90;;;-4.90;99.90;;;;;;2224412;64;20099;-42
2022/01/23 12:21:45;;;;;;;;;;;-4.90;99.90;;;;;;2224448;64;20080;-42
2022/01/23 12:24:14;;;;;;;2.87;0.80;;;-4.90;99.90;;;;;;2224305;64;19968;-41
2022/01/23 12:26:44;;;;;;;2.40;0.60;;;-4.90;99.90;;;;;;2220479;64;20089;-41
2022/01/23 12:29:12;;;;;;;1.40;0.60;;;-4.90;99.90;;;;;;2216473;64;20169;-40
2022/01/23 12:31:38;;;;;;;3.43;0.73;;;-4.90;99.90;;;;;;2216694;64;20084;-43
2022/01/23 12:34:05;;;;;;;2.30;0.47;;;-4.80;99.90;;;;;;2220210;64;20645;-43
2022/01/23 12:36:37;;;;;;;2.03;0.83;;;-4.90;99.90;;;;;;2216584;64;20151;-40
2022/01/23 12:39:06;;;;;;;1.67;0.70;;;-4.90;99.90;;;;;;2220314;64;20104;-41
2022/01/23 12:41:34;;;;;;;2.10;0.87;;;-4.90;99.90;;;;;;2220493;64;20085;-42
2022/01/23 12:44:05;;;;;;;1.70;0.60;;;-4.90;99.90;;;;;;2220474;64;20165;-42
2022/01/23 12:46:39;;;;;;;2.93;0.73;;;-5.00;99.90;;;;;;2220387;64;20088;-42
2022/01/23 12:49:31;;;;;;;2.15;1.10;;;-4.90;99.90;;;;;;2220497;64;20548;-42
2022/01/23 12:52:09;;;;;;;3.37;0.80;;;-5.10;99.90;;;;;;2220456;64;20088;-46
2022/01/23 12:54:47;;;;;;;3.93;0.70;;;-5.20;99.90;;;;;;2220334;64;20093;-40
2022/01/23 12:57:19;;;;;;;4.20;0.60;;;-5.20;99.90;;;;;;2220486;64;20112;-44
2022/01/23 12:59:57;;;;;;;1.70;0.70;;;-5.30;99.90;;;;;;2220466;64;20096;-44
2022/01/23 13:02:26;;;;;;;2.40;0.80;;;-5.30;99.90;;;;;;2220407;64;20094;-41
2022/01/23 13:04:54;;;;;;;0.27;0.07;;;-5.40;99.90;;;;;;2211819;64;20089;-44
2022/01/23 13:08:02;;;;;;;4.50;1.67;;;-5.50;99.90;;;;;;2214756;64;20105;-41
2022/01/23 13:12:50;;;;;;;4.13;1.50;;;-5.80;99.90;;;;;;2214849;64;20097;-40
2022/01/23 13:15:42;;;;;;;6.80;2.17;;;-5.80;99.90;;;;;;2214911;64;20081;-45
2022/01/23 13:18:33;;;;;;;2.83;1.20;;;-5.90;99.90;;;;;;2213064;64;20154;-42
2022/01/23 13:34:49;;;;;;;3.87;1.40;;;-5.90;99.90;;;;;;2216284;64;20547;-43
2022/01/23 13:37:26;;;;;;;3.77;1.00;;;-5.90;99.90;;;;;;2216107;64;20092;-42
2022/01/23 13:40:04;;;;;;;3.93;1.00;;;-6.00;99.90;;;;;;2219320;64;20504;-41
2022/01/23 13:42:51;;;;;;;4.03;1.30;;;-6.00;99.90;;;;;;2222039;64;20077;-40
2022/01/23 13:54:14;;;;;;;2.37;0.80;;;-6.00;99.90;;;;;;2215242;64;20107;-40
2022/01/23 14:02:17;;;;;;;4.27;1.00;;;-6.10;99.90;;;;;;2215410;64;20096;-42
2022/01/23 14:04:51;;;;;;;3.17;1.50;;;-6.20;99.90;;;;;;2215527;64;20089;-41
2022/01/23 14:07:23;;;;;;;4.75;1.23;;;-6.30;99.90;;;;;;2215141;64;20574;-41
2022/01/23 14:09:49;;;;;;;4.50;1.47;;;-6.20;99.90;;;;;;2215429;64;20528;-40
2022/01/23 14:12:18;;;;;;;4.77;1.07;;;-6.20;99.90;;;;;;2215471;64;20112;-42
2022/01/23 14:14:52;;;;;;;3.07;1.13;;;-6.20;99.90;;;;;;2215481;64;20093;-40
2022/01/23 14:17:19;;;;;;;4.07;1.63;;;-6.20;99.90;;;;;;2215328;64;20124;-43
2022/01/23 14:20:12;;;;;;;4.17;1.10;;;-6.30;99.90;;;;;;2215381;64;20611;-43
2022/01/23 14:22:43;;;;;;;4.53;0.50;;;-6.40;99.90;;;;;;2214957;64;20127;-42
2022/01/23 14:25:20;;;;;;;6.40;1.03;;;-6.50;99.90;;;;;;2214138;64;20108;-41
2022/01/23 14:28:11;;;;;;;4.07;0.97;;;-6.50;99.90;;;;;;2213526;64;20105;-43
2022/01/23 14:30:59;;;;;;;2.60;1.20;;;-6.50;99.90;;;;;;2221002;64;20118;-40
2022/01/23 14:33:33;;;;;;;3.57;1.20;;;-6.60;99.90;;;;;;2220697;64;20546;-44
2022/01/23 14:36:25;;;;;;;3.13;1.17;;;-6.60;99.90;;;;;;2220782;64;20168;-40
2022/01/23 14:39:06;;;;;;;2.93;0.90;;;-6.60;99.90;;;;;;2218227;64;20093;-41
2022/01/23 14:41:38;;;;;;;5.20;1.57;;;-6.70;99.90;;;;;;2221073;64;20093;-43
2022/01/23 14:44:16;;;;;;;4.23;1.70;;;-6.70;99.90;;;;;;2220821;64;20112;-43
2022/01/23 14:46:45;;;;;;;4.33;1.10;;;-6.70;99.90;;;;;;2220915;64;20651;-41
2022/01/23 14:49:21;;;;;;;2.80;1.23;;;-6.70;99.90;;;;;;2220861;64;20092;-44
2022/01/23 14:51:49;;;;;;;4.67;1.00;;;-6.60;99.90;;;;;;2214290;64;20097;-42
2022/01/23 14:54:19;;;;;;;2.73;1.10;;;-6.60;99.90;;;;;;2220812;64;20139;-42
2022/01/23 14:56:45;;;;;;;6.87;0.87;;;-6.60;99.90;;;;;;2220899;64;20084;-43
2022/01/23 14:59:12;;;;;;;5.03;1.07;;;-6.60;99.90;;;;;;2221039;64;20106;-41
2022/01/23 15:01:39;;;;;;;6.10;1.20;;;-6.60;99.90;;;;;;2211424;64;20203;-40
2022/01/23 15:04:11;;;;;;;4.17;1.00;;;-6.60;99.90;;;;;;2211369;64;20093;-41
2022/01/23 15:06:42;;;;;;;2.60;1.17;;;-6.70;99.90;;;;;;2211506;64;20090;-39
2022/01/23 15:09:10;;;;;;;2.93;1.10;;;-6.70;99.90;;;;;;2211392;64;20113;-40
2022/01/23 15:11:36;;;;;;;2.87;1.07;;;-6.70;99.90;;;;;;2211410;64;20244;-41
2022/01/23 15:14:03;;;;;;;2.77;0.70;;;-6.80;99.90;;;;;;2211567;64;20155;-40
2022/01/23 15:16:30;;;;;;;3.60;1.13;;;-6.80;99.90;;;;;;2208305;64;20093;-43
2022/01/23 15:18:56;;;;;;;3.20;1.63;;;-6.80;99.90;;;;;;2201382;64;20098;-40
2022/01/23 15:21:23;;;;;;;1.37;0.60;;;-6.80;99.90;;;;;;2208277;64;20090;-41
2022/01/23 15:23:55;;;;;;;0.73;0.30;;;-6.80;99.90;;;;;;2211501;64;20093;-40
2022/01/23 15:26:25;;;;;;;1.70;0.73;;;-7.00;99.90;;;;;;2208513;64;20094;-42
2022/01/23 15:28:54;;;;;;;2.73;1.00;;;-7.00;99.90;;;;;;2211383;64;20524;-44
2022/01/23 15:31:20;;;;;;;0.80;0.20;;;-7.00;99.90;;;;;;2203565;65;20121;-41
2022/01/23 15:33:47;;;;;;;2.43;0.63;;;-7.00;99.90;;;;;;2214113;64;20123;-41
2022/01/23 15:36:16;;;;;;;4.53;1.47;;;-7.10;99.90;;;;;;2215209;64;20085;-40
2022/01/23 15:38:44;;;;;;;2.77;1.47;;;-7.10;99.90;;;;;;2215041;64;20093;-41
2022/01/23 15:41:11;;;;;;;4.67;2.10;;;-7.10;99.90;;;;;;2215362;64;20626;-40
2022/01/23 15:43:40;;;;;;;6.10;2.10;;;-7.10;99.90;;;;;;2215130;64;20525;-42
2022/01/23 15:46:09;;;;;;;4.53;1.00;;;-7.00;99.90;;;;;;2211995;64;20559;-41
2022/01/23 15:48:35;;;;;;;1.73;0.60;;;-7.00;99.90;;;;;;2215121;64;20095;-41
2022/01/23 15:51:02;;;;;;;4.47;1.83;;;-7.00;99.90;;;;;;2215223;64;20089;-39
2022/01/23 15:53:29;;;;;;;5.40;1.90;;;-7.10;99.90;;;;;;2215008;64;20101;-42
2022/01/23 15:55:55;;;;;;;5.67;2.77;;;-7.10;99.90;;;;;;2215270;64;20124;-41
2022/01/23 15:58:27;;;;;;;6.30;2.10;;;-7.00;99.90;;;;;;2211913;64;20089;-40
2022/01/23 16:00:54;;;;;;;6.80;1.80;;;-7.00;99.90;;;;;;2215206;64;20081;-41
2022/01/23 16:03:20;;;;;;;5.03;2.23;;;-7.10;99.90;;;;;;2223203;64;20098;-43
2022/01/23 16:05:52;;;;;;;5.10;2.13;;;-7.10;99.90;;;;;;2224585;64;20590;-43
2022/01/23 16:08:19;;;;;;;6.43;2.50;;;-7.10;99.90;;;;;;2224507;64;20096;-43
2022/01/23 16:10:46;;;;;;;4.83;1.87;;;-7.10;99.90;;;;;;2224545;64;20095;-41
2022/01/23 16:13:12;;;;;;;6.67;1.83;;;-7.10;99.90;;;;;;2220522;64;20119;-41
2022/01/23 16:15:41;;;;;;;5.73;1.57;;;-7.10;99.90;;;;;;2224689;64;20088;-45
2022/01/23 16:18:09;;;;;;;4.47;1.60;;;-7.20;99.90;;;;;;2220645;64;20102;-40
2022/01/23 16:20:36;;;;;;;4.73;1.47;;;-7.20;99.90;;;;;;2224577;64;20084;-40
2022/01/23 16:23:03;;;;;;;2.60;1.07;;;-7.20;99.90;;;;;;2224537;64;20108;-42
2022/01/23 16:25:30;;;;;;;4.93;1.27;;;-7.20;99.90;;;;;;2224742;64;20092;-41
2022/01/23 16:27:56;;;;;;;2.27;0.80;;;-7.30;99.90;;;;;;2224331;64;20099;-41
2022/01/23 16:30:24;;;;;;;6.53;1.17;;;-7.40;99.90;;;;;;2224623;64;20088;-42
2022/01/23 16:32:54;;;;;;;6.23;2.10;;;-7.40;99.90;;;;;;2217344;64;20100;-43